To NAV CANADA Home Page Login to a new session Search on AWWS site Feedback and Comments Disclaimer Vers la page française équivalente Tips FAQ What's new on the site To the Forecasts and Observations / NOTAM section To "File a Flight Plan" website Publications and other links Update of the User's profile FIC Telephone Numbers My Weather Data Folder Route Weather Data Regional Weather Data Local Weather Data To the Forecasts and Observations / NOTAM section
Request Generated 02/10/2016 at 15:05:35 UTC . Weather information available at that time is displayed.

METAR/TAF

HAMILTON/ON    

METAR CYHM 101500Z 25015G21KT 4SM -SN FEW009 SCT024 BKN032 OVC042
M05/M07 A2963 RMK SF1SC3SC3SC1 SLP047=
METAR CYHM 101400Z 25013G19KT 1 3/4SM -SN BKN022 OVC032 M05/M07 A2962
RMK SC6SC2 SLP043=
METAR CYHM 101300Z 24013KT 1 1/2SM -SN SCT009 BKN015 OVC029 M05/M07
A2961 RMK SN1SF2SC3SC2 SLP038=

TAF AMD CYHM 101236Z 1012/1112 26012G22KT 11/4SM -SHSN OVC015 TEMPO
1012/1018 6SM -SN FEW015 OVC025
FM101800 27016G26KT P6SM -SHSN BKN040 TEMPO 1018/1024 3SM -SHSN
FM110300 28012G22KT P6SM SCT040
RMK NXT FCST BY 101800Z=
Your time UTC time
Weather data provided by Environment Canada and NAV CANADA